Shickshinny, Pennsylvania
Current Conditions -  °F | °C
As of 12:35 PM on Monday 24 Nov 2014 (Local Time) from KHZL Reporting Station
Scattered Clouds Scattered Clouds  
Wind Chill: 64°   Ceiling: Unl
Heat Index: 64°   Visibility: 10mi
Dew Point: 54°   Wind: 14mph
Humidity: 68%   Direction: 180°S
Pressure: 29.59"   Gusts: 24mph
Location:  41.15°N, 76.15°W
Report Text: KHZL 241735Z AUTO 18012G21KT 10SM SCT021 18/12 A2959 RMK AO2
Loading
Personal Weather Stations






























Interactive Weather Map New forecast layout! Learn more

10-Day Weather Forecast

Advertisements
Track Severe Weather on mobile